createdAt,value
2022-11-13T00:02:21.019Z,3.38
2022-11-13T00:05:40.883Z,3.47
2022-11-13T00:09:00.764Z,3.40
2022-11-13T00:12:20.575Z,4.25
2022-11-13T00:15:40.390Z,4.35
2022-11-13T00:19:00.421Z,3.40
2022-11-13T00:22:20.751Z,3.50
2022-11-13T00:25:40.728Z,3.67
2022-11-13T00:29:02.736Z,3.90
2022-11-13T00:32:22.827Z,3.25
2022-11-13T00:35:42.808Z,3.70
2022-11-13T00:39:02.943Z,3.67
2022-11-13T00:42:23.188Z,3.92
2022-11-13T00:45:43.178Z,3.47
2022-11-13T00:49:03.648Z,3.80
2022-11-13T00:52:23.685Z,3.20
2022-11-13T00:55:44.516Z,3.63
2022-11-13T00:59:04.744Z,3.08
2022-11-13T01:02:24.679Z,3.78
2022-11-13T01:05:46.122Z,3.40
2022-11-13T01:09:06.374Z,3.65
2022-11-13T01:12:26.412Z,3.15
2022-11-13T01:15:46.721Z,4.85
2022-11-13T01:19:07.019Z,3.75
2022-11-13T01:22:27.295Z,3.53
2022-11-13T01:25:47.519Z,4.10
2022-11-13T01:29:07.470Z,3.40
2022-11-13T01:32:27.421Z,3.97
2022-11-13T01:35:47.729Z,3.40
2022-11-13T01:39:10.752Z,3.53
2022-11-13T01:42:33.425Z,3.40
2022-11-13T01:45:59.512Z,3.17
2022-11-13T01:49:31.980Z,3.25
2022-11-13T01:52:52.251Z,3.80
2022-11-13T01:56:13.166Z,3.05
2022-11-13T01:59:40.838Z,3.30
2022-11-13T02:06:21.891Z,4.20
2022-11-13T02:09:48.197Z,4.28
2022-11-13T02:13:08.068Z,3.15
2022-11-13T02:16:31.736Z,3.30
2022-11-13T02:19:56.504Z,3.88
2022-11-13T02:23:19.704Z,3.00
2022-11-13T02:26:40.652Z,3.20
2022-11-13T02:30:16.386Z,3.38
2022-11-13T02:33:37.397Z,4.03
2022-11-13T02:36:57.702Z,2.90
2022-11-13T02:40:18.774Z,3.08
2022-11-13T02:43:39.068Z,3.20
2022-11-13T02:46:58.951Z,3.50
2022-11-13T02:50:19.132Z,3.28
2022-11-13T02:53:39.419Z,2.75
2022-11-13T02:56:59.794Z,3.13
2022-11-13T03:00:20.060Z,3.55
2022-11-13T03:03:57.044Z,3.60
2022-11-13T03:07:17.575Z,3.03
2022-11-13T03:10:37.434Z,3.38
2022-11-13T03:13:57.424Z,3.03
2022-11-13T03:17:17.339Z,3.15
2022-11-13T03:20:39.114Z,4.18
2022-11-13T03:23:59.566Z,3.80
2022-11-13T03:27:20.304Z,3.88
2022-11-13T03:30:40.425Z,3.80
2022-11-13T03:34:00.823Z,4.07
2022-11-13T03:37:21.192Z,3.10
2022-11-13T03:40:42.931Z,2.83
2022-11-13T03:44:03.140Z,2.97
2022-11-13T03:47:23.268Z,4.90
2022-11-13T03:50:45.727Z,2.95
2022-11-13T03:54:05.708Z,3.83
2022-11-13T03:57:25.819Z,3.08
2022-11-13T04:00:46.647Z,3.55
2022-11-13T04:04:06.528Z,2.60
2022-11-13T04:07:26.534Z,3.20
2022-11-13T04:10:47.190Z,2.47
2022-11-13T04:14:07.727Z,2.80
2022-11-13T04:17:27.703Z,2.58
2022-11-13T04:20:47.620Z,2.90
2022-11-13T04:24:07.770Z,3.00
2022-11-13T04:27:27.855Z,4.03
2022-11-13T04:30:47.930Z,3.03
2022-11-13T04:34:08.468Z,2.58
2022-11-13T04:37:28.477Z,2.58
2022-11-13T04:41:12.008Z,2.33
2022-11-13T04:44:31.965Z,2.75
2022-11-13T04:47:52.160Z,2.88
2022-11-13T04:51:12.971Z,3.28
2022-11-13T04:54:33.180Z,2.47
2022-11-13T04:57:55.464Z,3.35
2022-11-13T05:01:15.835Z,2.72
2022-11-13T05:04:36.077Z,3.03
2022-11-13T05:07:56.284Z,2.88
2022-11-13T05:11:16.119Z,2.65
2022-11-13T05:14:37.420Z,3.08
2022-11-13T05:17:57.659Z,2.70
2022-11-13T05:21:18.079Z,2.63
2022-11-13T05:24:38.475Z,2.72
2022-11-13T05:27:58.849Z,3.20
2022-11-13T05:31:19.037Z,2.78
2022-11-13T05:34:39.337Z,2.90
2022-11-13T05:38:03.020Z,2.22
2022-11-13T05:41:23.989Z,1.98
2022-11-13T05:44:44.361Z,2.47
2022-11-13T05:48:04.857Z,2.00
2022-11-13T05:51:34.498Z,2.63
2022-11-13T05:54:54.301Z,3.13
2022-11-13T05:58:14.339Z,3.05
2022-11-13T06:01:36.660Z,2.70
2022-11-13T06:04:56.880Z,2.30
2022-11-13T06:08:16.864Z,3.15
2022-11-13T06:11:36.873Z,3.17
2022-11-13T06:14:57.001Z,2.58
2022-11-13T06:18:26.288Z,2.80
2022-11-13T06:21:46.994Z,2.97
2022-11-13T06:25:07.444Z,2.75
2022-11-13T06:28:27.872Z,2.65
2022-11-13T06:31:48.258Z,2.60
2022-11-13T06:35:08.286Z,2.67
2022-11-13T06:38:37.227Z,3.53
2022-11-13T06:41:57.368Z,2.80
2022-11-13T06:45:17.851Z,3.92
2022-11-13T06:48:37.737Z,3.45
2022-11-13T06:51:57.703Z,2.67
2022-11-13T06:55:17.715Z,1.80
2022-11-13T06:58:38.204Z,2.95
2022-11-13T07:01:58.033Z,3.33
2022-11-13T07:05:18.155Z,2.90
2022-11-13T07:08:38.328Z,2.78
2022-11-13T07:11:58.350Z,2.70
2022-11-13T07:15:18.662Z,2.67
2022-11-13T07:18:39.075Z,2.95
2022-11-13T07:21:59.126Z,3.28
2022-11-13T07:25:18.920Z,2.40
2022-11-13T07:28:39.162Z,2.60
2022-11-13T07:31:59.168Z,2.38
2022-11-13T07:35:20.107Z,2.55
2022-11-13T07:38:40.230Z,3.13
2022-11-13T07:42:00.344Z,2.47
2022-11-13T07:45:20.556Z,2.20
2022-11-13T07:48:40.647Z,2.75
2022-11-13T07:52:00.881Z,2.17
2022-11-13T07:55:21.076Z,2.90
2022-11-13T07:58:41.542Z,2.55
2022-11-13T08:02:02.035Z,3.30
2022-11-13T08:05:22.334Z,5.78
2022-11-13T08:08:42.602Z,2.97
2022-11-13T08:12:02.745Z,6.07
2022-11-13T08:15:22.648Z,2.95
2022-11-13T08:18:42.677Z,3.67
2022-11-13T08:22:02.656Z,3.00
2022-11-13T08:25:22.520Z,3.45
2022-11-13T08:28:43.973Z,3.83
2022-11-13T08:32:04.877Z,3.45
2022-11-13T08:35:29.191Z,4.05
2022-11-13T08:38:49.788Z,3.70
2022-11-13T08:42:09.694Z,4.00
2022-11-13T08:45:31.177Z,5.20
2022-11-13T08:48:51.311Z,5.85
2022-11-13T08:52:11.540Z,5.85
2022-11-13T08:55:33.233Z,4.55
2022-11-13T08:58:53.442Z,4.32
2022-11-13T09:02:15.178Z,5.15
2022-11-13T09:05:35.155Z,3.80
2022-11-13T09:08:55.427Z,2.90
2022-11-13T09:12:16.041Z,6.55
2022-11-13T09:15:37.798Z,4.57
2022-11-13T09:18:57.822Z,6.38
2022-11-13T09:22:17.988Z,4.30
2022-11-13T09:25:38.369Z,5.50
2022-11-13T09:28:58.567Z,7.55
2022-11-13T09:32:19.027Z,6.35
2022-11-13T09:35:39.197Z,8.02
2022-11-13T09:39:00.719Z,10.07
2022-11-13T09:42:24.961Z,9.30
2022-11-13T09:45:45.556Z,12.05
2022-11-13T09:49:25.265Z,10.18
2022-11-13T09:52:46.204Z,11.95
2022-11-13T09:56:15.255Z,13.57
2022-11-13T09:59:56.645Z,15.55
2022-11-13T10:03:59.730Z,16.25
2022-11-13T10:07:35.396Z,12.25
2022-11-13T10:11:11.624Z,14.15
2022-11-13T10:14:38.649Z,16.33
2022-11-13T10:18:18.305Z,12.82
2022-11-13T10:21:44.343Z,16.35
2022-11-13T10:25:20.427Z,17.75
2022-11-13T10:28:50.619Z,12.80
2022-11-13T10:32:27.576Z,13.00
2022-11-13T10:36:03.927Z,14.38
2022-11-13T10:39:23.976Z,11.75
2022-11-13T10:42:44.451Z,11.00
2022-11-13T10:46:05.643Z,11.90
2022-11-13T10:49:29.055Z,12.40
2022-11-13T10:52:51.157Z,12.40
2022-11-13T10:56:32.952Z,14.18
2022-11-13T10:59:53.272Z,16.55
2022-11-13T11:03:19.476Z,10.00
2022-11-13T11:07:17.799Z,10.23
2022-11-13T11:10:21.567Z,10.32
2022-11-13T11:13:41.678Z,12.27
2022-11-13T11:17:04.150Z,11.10
2022-11-13T11:20:49.626Z,10.38
2022-11-13T11:24:13.925Z,10.60
2022-11-13T11:27:52.362Z,12.18
2022-11-13T11:31:21.795Z,9.23
2022-11-13T11:34:59.401Z,8.10
2022-11-13T11:38:27.167Z,10.07
2022-11-13T11:42:15.444Z,8.90
2022-11-13T11:45:40.733Z,7.43
2022-11-13T11:49:01.645Z,9.30
2022-11-13T11:52:56.471Z,11.00
2022-11-13T11:56:26.818Z,7.85
2022-11-13T12:00:10.691Z,6.15
2022-11-13T12:03:44.607Z,10.40
2022-11-13T12:07:10.855Z,8.65
2022-11-13T12:10:56.783Z,11.13
2022-11-13T12:14:38.256Z,7.25
2022-11-13T12:18:12.802Z,7.78
2022-11-13T12:22:06.671Z,8.85
2022-11-13T12:25:35.524Z,14.93
2022-11-13T12:29:19.559Z,13.27
2022-11-13T12:32:48.416Z,11.90
2022-11-13T12:36:11.905Z,9.13
2022-11-13T12:39:43.042Z,11.75
2022-11-13T12:43:41.763Z,11.40
2022-11-13T12:47:02.085Z,8.57
2022-11-13T12:50:32.736Z,10.80
2022-11-13T12:53:55.980Z,8.80
2022-11-13T12:57:28.632Z,8.68
2022-11-13T13:01:07.833Z,9.70
2022-11-13T13:11:49.432Z,10.13
2022-11-13T13:15:27.443Z,11.55
2022-11-13T13:18:47.779Z,10.13
2022-11-13T13:22:23.800Z,8.65
2022-11-13T13:25:43.708Z,9.43
2022-11-13T13:29:18.604Z,14.23
2022-11-13T13:32:58.881Z,10.60
2022-11-13T13:36:37.733Z,13.25
2022-11-13T13:40:19.754Z,16.38
2022-11-13T13:44:01.561Z,15.75
2022-11-13T13:47:27.907Z,11.38
2022-11-13T13:50:50.679Z,12.80
2022-11-13T13:54:18.695Z,15.10
2022-11-13T13:57:41.563Z,18.38
2022-11-13T14:01:18.848Z,14.45
2022-11-13T14:04:48.350Z,15.88
2022-11-13T14:08:19.459Z,12.63
2022-11-13T14:11:39.451Z,12.30
2022-11-13T14:14:59.655Z,12.57
2022-11-13T14:18:20.060Z,15.90
2022-11-13T14:21:40.645Z,12.32
2022-11-13T14:25:01.475Z,13.57
2022-11-13T14:28:25.392Z,12.25
2022-11-13T14:31:45.798Z,12.70
2022-11-13T14:35:07.967Z,14.50
2022-11-13T14:38:33.660Z,14.60
2022-11-13T14:41:57.376Z,11.63
2022-11-13T14:45:28.614Z,13.80
2022-11-13T14:48:55.672Z,17.80
2022-11-13T14:52:22.482Z,17.52
2022-11-13T14:55:54.919Z,14.45
2022-11-13T14:59:19.993Z,14.63
2022-11-13T15:02:40.263Z,13.63
2022-11-13T15:06:00.297Z,14.00
2022-11-13T15:09:21.087Z,12.20
2022-11-13T15:12:41.402Z,15.60
2022-11-13T15:16:01.840Z,11.40
2022-11-13T15:19:35.099Z,12.80
2022-11-13T15:22:57.180Z,18.48
2022-11-13T15:26:17.433Z,18.73
2022-11-13T15:29:37.527Z,15.00
2022-11-13T15:32:59.240Z,18.02
2022-11-13T15:36:19.367Z,11.82
2022-11-13T15:39:39.432Z,13.73
2022-11-13T15:43:01.222Z,14.52
2022-11-13T15:46:22.868Z,11.70
2022-11-13T15:49:56.640Z,8.98
2022-11-13T15:53:22.825Z,11.75
2022-11-13T15:56:43.806Z,10.15
2022-11-13T16:00:12.704Z,13.32
2022-11-13T16:03:39.342Z,10.05
2022-11-13T16:06:59.514Z,12.60
2022-11-13T16:10:21.014Z,11.98
2022-11-13T16:13:41.058Z,12.32
2022-11-13T16:17:01.364Z,9.82
2022-11-13T16:20:21.710Z,10.23
2022-11-13T16:23:42.214Z,10.02
2022-11-13T16:27:02.343Z,11.13
2022-11-13T16:30:26.416Z,13.43
2022-11-13T16:33:46.451Z,10.45
2022-11-13T16:37:16.496Z,11.50
2022-11-13T16:40:36.747Z,10.88
2022-11-13T16:43:56.864Z,13.23
2022-11-13T16:47:25.452Z,11.93
2022-11-13T16:50:45.787Z,11.88
2022-11-13T16:54:05.699Z,10.32
2022-11-13T16:57:25.615Z,10.05
2022-11-13T17:00:45.541Z,10.35
2022-11-13T17:04:05.561Z,10.98
2022-11-13T17:07:25.861Z,10.68
2022-11-13T17:10:46.284Z,9.60
2022-11-13T17:14:06.309Z,10.93
2022-11-13T17:17:26.210Z,8.98
2022-11-13T17:20:50.177Z,10.88
2022-11-13T17:24:10.301Z,10.55
2022-11-13T17:27:30.344Z,11.05
2022-11-13T17:30:54.963Z,11.10
2022-11-13T17:37:37.554Z,14.15
2022-11-13T17:41:07.977Z,12.43
2022-11-13T17:44:28.082Z,10.95
2022-11-13T17:47:49.907Z,11.40
2022-11-13T17:51:15.233Z,13.20
2022-11-13T17:54:35.398Z,16.92
2022-11-13T17:57:58.925Z,17.92
2022-11-13T18:01:21.991Z,16.17
2022-11-13T18:04:42.526Z,19.88
2022-11-13T18:08:02.492Z,21.27
2022-11-13T18:11:25.916Z,28.23
2022-11-13T18:14:52.147Z,26.20
2022-11-13T18:18:12.292Z,22.73
2022-11-13T18:21:34.714Z,27.25
2022-11-13T18:24:55.103Z,25.35
2022-11-13T18:28:15.300Z,29.10
2022-11-13T18:31:35.496Z,24.63
2022-11-13T18:34:55.395Z,26.65
2022-11-13T18:38:15.631Z,23.02
2022-11-13T18:41:36.167Z,33.97
2022-11-13T18:44:57.305Z,28.95
2022-11-13T18:48:18.782Z,21.63
2022-11-13T18:51:38.968Z,23.02
2022-11-13T18:54:58.876Z,26.92
2022-11-13T18:58:19.012Z,22.83
2022-11-13T19:01:39.922Z,24.35
2022-11-13T19:05:00.324Z,20.08
2022-11-13T19:08:20.772Z,25.40
2022-11-13T19:11:42.029Z,20.33
2022-11-13T19:15:02.831Z,21.35
2022-11-13T19:18:22.940Z,24.25
2022-11-13T19:21:43.890Z,20.38
2022-11-13T19:25:04.045Z,17.73
2022-11-13T19:28:24.763Z,21.42
2022-11-13T19:31:46.603Z,20.02
2022-11-13T19:35:06.652Z,19.50
2022-11-13T19:38:27.669Z,17.25
2022-11-13T19:41:48.100Z,19.17
2022-11-13T19:45:08.644Z,16.42
2022-11-13T19:48:28.631Z,18.33
2022-11-13T19:51:48.571Z,18.63
2022-11-13T19:55:08.940Z,16.90
2022-11-13T19:58:29.440Z,21.05
2022-11-13T20:01:49.994Z,16.10
2022-11-13T20:05:10.145Z,20.38
2022-11-13T20:08:30.773Z,15.93
2022-11-13T20:11:51.375Z,17.92
2022-11-13T20:15:11.700Z,19.25
2022-11-13T20:18:32.123Z,16.50
2022-11-13T20:21:53.794Z,17.17
2022-11-13T20:25:13.783Z,15.25
2022-11-13T20:28:34.361Z,14.77
2022-11-13T20:31:54.388Z,14.75
2022-11-13T20:35:16.035Z,18.20
2022-11-13T20:38:36.525Z,14.88
2022-11-13T20:41:56.474Z,15.88
2022-11-13T20:45:16.542Z,15.80
2022-11-13T20:48:36.893Z,15.40
2022-11-13T20:51:57.440Z,12.93
2022-11-13T20:55:17.468Z,15.13
2022-11-13T20:58:37.557Z,11.95
2022-11-13T21:01:57.772Z,15.32
2022-11-13T21:05:18.209Z,13.75
2022-11-13T21:08:38.427Z,13.73
2022-11-13T21:11:58.422Z,13.70
2022-11-13T21:15:18.291Z,15.27
2022-11-13T21:18:38.389Z,12.80
2022-11-13T21:21:58.289Z,15.30
2022-11-13T21:25:19.562Z,13.18
2022-11-13T21:28:40.548Z,16.25
2022-11-13T21:32:01.046Z,12.88
2022-11-13T21:35:22.664Z,10.48
2022-11-13T21:38:43.457Z,13.30
2022-11-13T21:42:03.813Z,10.15
2022-11-13T21:45:24.040Z,12.30
2022-11-13T21:48:45.116Z,12.43
2022-11-13T21:52:05.436Z,12.65
2022-11-13T21:55:25.285Z,11.38
2022-11-13T21:58:45.426Z,15.82
2022-11-13T22:02:05.960Z,10.55
2022-11-13T22:05:26.351Z,13.35
2022-11-13T22:08:54.583Z,11.93
2022-11-13T22:12:15.093Z,11.73
2022-11-13T22:15:35.350Z,11.65
2022-11-13T22:18:56.857Z,10.65
2022-11-13T22:22:17.079Z,14.55
2022-11-13T22:25:36.848Z,13.50
2022-11-13T22:28:56.996Z,10.38
2022-11-13T22:32:17.202Z,12.68
2022-11-13T22:35:37.116Z,13.90
2022-11-13T22:38:58.474Z,11.50
2022-11-13T22:42:18.607Z,12.05
2022-11-13T22:45:38.445Z,10.95
2022-11-13T22:49:01.628Z,11.40
2022-11-13T22:52:21.844Z,12.73
2022-11-13T22:55:41.777Z,12.07
2022-11-13T22:59:04.024Z,12.85
2022-11-13T23:02:24.381Z,9.20
2022-11-13T23:05:44.414Z,9.80
2022-11-13T23:09:05.661Z,11.93
2022-11-13T23:12:27.224Z,11.13
2022-11-13T23:15:47.500Z,10.05
2022-11-13T23:19:07.592Z,11.50
2022-11-13T23:22:27.555Z,11.80
2022-11-13T23:25:47.573Z,10.13
2022-11-13T23:29:07.696Z,10.77
2022-11-13T23:32:27.815Z,10.30
2022-11-13T23:35:48.699Z,10.52
2022-11-13T23:39:09.018Z,12.48
2022-11-13T23:42:53.492Z,11.68
2022-11-13T23:46:09.219Z,11.27
2022-11-13T23:49:29.444Z,10.30
2022-11-13T23:52:49.584Z,9.88
2022-11-13T23:56:10.842Z,9.45
2022-11-13T23:59:31.076Z,11.65
